Aeroporto :
LOGIN :

Iscrizione | Disclaimer

   EN    FR    IT 

 










Sommario :    VFR   VFR Marginale   IFR   IFR Intensivo   IFR Molto Intensivo
Visibilità : 
Base nubi : 
>= 8 km
>= 3000ft
5 / 8 km
1000 / 3000 ft
1500m / 5 km
500 / 1000 ft
800 / 1500m
200 / 500 ft
< 800m
< 200 ft
Simboli :   Temporali  Nebbia  Neve Forte  Precipitazioni Forti  Vento > 20 kt
SIGMETs :   Varie  Temporali  Ghiacco  Turbolenza  Onda orograficha  Ceneri Vulcaniche







- Altitudine del aeroporto : 14 ft
- Codice IATA : BRE


EDDW - Bremen Neuenland

ULTIMO METAR :
  • 220620Z 30011KT 7000 FEW009 BKN011 11/09 Q1016 NOSIG

METARs OBSOLETI :
  • 220550Z 30011KT 6000 -DZ OVC010 11/10 Q1015 TEMPO BKN009
  • 220520Z 29011KT 4300 -DZ OVC005 10/10 Q1015 BECMG 6000
  • 220450Z 30011KT 4500 -DZ OVC006 11/10 Q1015 BECMG 6000
  • 220420Z 29012KT 4500 -DZ OVC006 11/10 Q1015 TEMPO BKN004
  • 220350Z 29013KT 4500 -DZ OVC006 11/10 Q1014 TEMPO BKN004

TAF TAF EDDW
Valido dal 22 a 06 ore il 23 a 06 ore UTC


220500Z 2206/2306 29012G22KT 9999 BKN007
BECMG 2206/2209 BKN013
BECMG 2209/2211 SCT030
BECMG 2216/2218 33007KT
BECMG 2219/2221 VRB03KT
Nessun NOTAM noto per questo aeroporto.



MetMap, La meteo Aeronautica in un colpo d'occhio ! - Copyright ORBIFLY Dicembre 2007 - Disclaimer

ORBIFLY MET'MAP TEAM :

Programmazione e sviluppo : Alexandra Zaïnal
Concezione e sviluppo : Baudouin d'Aumeries
Co-Programmazione e sviluppo : Marc-Olivier Méhu
Supporto tecnico e logistico : Manuel Goepfert
Aiuto per la traduzione : Arnaldo La Scala

Contatto : metmap@orbifly.com




FONTI E CREDITI :

   NOAA